sensor_id;sensor_type;location;lat;lon;timestamp;pressure;altitude;pressure_sealevel;temperature;humidity
82784;BME280;72520;55.762;37.780;2024-03-29T00:01:28;99294.47;;;5.43;56.27
82784;BME280;72520;55.762;37.780;2024-03-29T00:04:31;99286.88;;;5.37;56.78
82784;BME280;72520;55.762;37.780;2024-03-29T00:07:32;99276.94;;;5.42;56.90
82784;BME280;72520;55.762;37.780;2024-03-29T00:10:36;99274.66;;;5.51;56.11
82784;BME280;72520;55.762;37.780;2024-03-29T00:13:39;99271.22;;;5.34;56.53
82784;BME280;72520;55.762;37.780;2024-03-29T00:16:40;99271.66;;;5.42;56.52
82784;BME280;72520;55.762;37.780;2024-03-29T00:19:41;99262.47;;;5.49;56.93
82784;BME280;72520;55.762;37.780;2024-03-29T00:22:42;99253.28;;;7.52;51.39
82784;BME280;72520;55.762;37.780;2024-03-29T00:25:43;99256.34;;;6.58;53.01
82784;BME280;72520;55.762;37.780;2024-03-29T00:28:45;99249.28;;;5.97;54.46
82784;BME280;72520;55.762;37.780;2024-03-29T00:31:46;99257.59;;;5.74;55.34
82784;BME280;72520;55.762;37.780;2024-03-29T00:34:50;99258.59;;;5.72;55.68
82784;BME280;72520;55.762;37.780;2024-03-29T00:37:51;99248.94;;;5.55;56.50
82784;BME280;72520;55.762;37.780;2024-03-29T00:40:52;99227.06;;;5.53;56.51
82784;BME280;72520;55.762;37.780;2024-03-29T00:43:55;99229.19;;;5.46;56.35
82784;BME280;72520;55.762;37.780;2024-03-29T00:46:58;99221.09;;;5.34;56.67
82784;BME280;72520;55.762;37.780;2024-03-29T00:49:59;99216.50;;;5.37;56.88
82784;BME280;72520;55.762;37.780;2024-03-29T00:53:00;99222.19;;;5.30;57.35
82784;BME280;72520;55.762;37.780;2024-03-29T00:56:01;99225.91;;;5.26;57.19
82784;BME280;72520;55.762;37.780;2024-03-29T00:59:04;99218.31;;;5.20;57.63
82784;BME280;72520;55.762;37.780;2024-03-29T01:02:05;99209.63;;;5.18;57.77
82784;BME280;72520;55.762;37.780;2024-03-29T01:05:07;99212.53;;;5.13;58.22
82784;BME280;72520;55.762;37.780;2024-03-29T01:08:08;99200.25;;;5.12;57.87
82784;BME280;72520;55.762;37.780;2024-03-29T01:11:09;99193.31;;;5.27;58.06
82784;BME280;72520;55.762;37.780;2024-03-29T01:14:13;99197.06;;;5.23;57.56
82784;BME280;72520;55.762;37.780;2024-03-29T01:17:14;99180.38;;;5.22;57.73
82784;BME280;72520;55.762;37.780;2024-03-29T01:20:18;99179.50;;;5.22;58.32
82784;BME280;72520;55.762;37.780;2024-03-29T01:23:19;99176.28;;;5.17;58.18
82784;BME280;72520;55.762;37.780;2024-03-29T01:26:22;99177.72;;;5.22;58.09
82784;BME280;72520;55.762;37.780;2024-03-29T01:29:24;99169.81;;;5.38;57.56
82784;BME280;72520;55.762;37.780;2024-03-29T01:32:26;99162.94;;;5.35;57.83
82784;BME280;72520;55.762;37.780;2024-03-29T01:35:27;99156.56;;;5.39;57.58
82784;BME280;72520;55.762;37.780;2024-03-29T01:38:29;99166.09;;;5.42;57.44
82784;BME280;72520;55.762;37.780;2024-03-29T01:41:30;99152.81;;;5.43;57.19
82784;BME280;72520;55.762;37.780;2024-03-29T01:44:33;99159.78;;;5.44;57.37
82784;BME280;72520;55.762;37.780;2024-03-29T01:47:35;99145.38;;;5.19;57.93
82784;BME280;72520;55.762;37.780;2024-03-29T01:50:40;99142.31;;;5.10;58.33
82784;BME280;72520;55.762;37.780;2024-03-29T01:53:45;99136.53;;;5.20;58.46
82784;BME280;72520;55.762;37.780;2024-03-29T01:56:49;99140.56;;;5.27;58.05
82784;BME280;72520;55.762;37.780;2024-03-29T01:59:54;99130.19;;;5.24;58.19
82784;BME280;72520;55.762;37.780;2024-03-29T02:02:56;99134.25;;;5.29;57.83
82784;BME280;72520;55.762;37.780;2024-03-29T02:05:59;99126.00;;;5.35;57.93
82784;BME280;72520;55.762;37.780;2024-03-29T02:09:02;99125.56;;;5.43;57.94
82784;BME280;72520;55.762;37.780;2024-03-29T02:12:08;99127.59;;;5.38;57.59
82784;BME280;72520;55.762;37.780;2024-03-29T02:15:15;99121.50;;;5.37;58.15
82784;BME280;72520;55.762;37.780;2024-03-29T02:18:21;99116.28;;;5.36;57.78
82784;BME280;72520;55.762;37.780;2024-03-29T02:21:29;99118.59;;;5.26;58.35
82784;BME280;72520;55.762;37.780;2024-03-29T02:24:33;99107.69;;;5.32;57.86
82784;BME280;72520;55.762;37.780;2024-03-29T02:27:35;99101.56;;;5.32;58.08
82784;BME280;72520;55.762;37.780;2024-03-29T02:30:41;99093.06;;;5.27;58.45
82784;BME280;72520;55.762;37.780;2024-03-29T02:33:44;99103.19;;;5.19;58.48
82784;BME280;72520;55.762;37.780;2024-03-29T02:36:46;99096.97;;;5.20;58.67
82784;BME280;72520;55.762;37.780;2024-03-29T02:39:50;99085.91;;;5.29;57.95
82784;BME280;72520;55.762;37.780;2024-03-29T02:42:55;99082.50;;;5.27;58.69
82784;BME280;72520;55.762;37.780;2024-03-29T02:46:05;99086.78;;;5.13;58.73
82784;BME280;72520;55.762;37.780;2024-03-29T02:49:07;99087.88;;;5.09;58.84
82784;BME280;72520;55.762;37.780;2024-03-29T02:52:10;99090.34;;;5.12;59.15
82784;BME280;72520;55.762;37.780;2024-03-29T02:55:14;99097.56;;;5.09;58.96
82784;BME280;72520;55.762;37.780;2024-03-29T02:58:16;99080.88;;;5.08;58.85
82784;BME280;72520;55.762;37.780;2024-03-29T03:01:19;99085.63;;;5.18;58.85
82784;BME280;72520;55.762;37.780;2024-03-29T03:04:21;99082.19;;;5.17;58.97
82784;BME280;72520;55.762;37.780;2024-03-29T03:07:23;99070.94;;;5.29;58.51
82784;BME280;72520;55.762;37.780;2024-03-29T03:10:47;99057.56;;;5.32;58.87
82784;BME280;72520;55.762;37.780;2024-03-29T03:14:00;99058.16;;;5.22;58.77
82784;BME280;72520;55.762;37.780;2024-03-29T03:17:02;99056.63;;;5.18;58.92
82784;BME280;72520;55.762;37.780;2024-03-29T03:20:05;99042.34;;;5.22;59.08
82784;BME280;72520;55.762;37.780;2024-03-29T03:23:07;99047.09;;;5.15;58.98
82784;BME280;72520;55.762;37.780;2024-03-29T03:26:11;99040.78;;;5.18;59.07
82784;BME280;72520;55.762;37.780;2024-03-29T03:29:12;99044.41;;;5.17;58.59
82784;BME280;72520;55.762;37.780;2024-03-29T03:32:14;99044.41;;;5.17;58.58
82784;BME280;72520;55.762;37.780;2024-03-29T03:35:23;99045.91;;;5.21;58.48
82784;BME280;72520;55.762;37.780;2024-03-29T03:38:25;99042.66;;;5.31;58.20
82784;BME280;72520;55.762;37.780;2024-03-29T03:41:28;99027.19;;;5.25;58.33
82784;BME280;72520;55.762;37.780;2024-03-29T03:44:30;99023.25;;;5.32;59.09
82784;BME280;72520;55.762;37.780;2024-03-29T03:47:31;99035.34;;;5.21;58.81
82784;BME280;72520;55.762;37.780;2024-03-29T03:50:33;99029.66;;;5.28;58.60
82784;BME280;72520;55.762;37.780;2024-03-29T03:53:35;99031.25;;;5.31;58.61
82784;BME280;72520;55.762;37.780;2024-03-29T03:56:40;99035.03;;;5.27;58.43
82784;BME280;72520;55.762;37.780;2024-03-29T03:59:41;99034.00;;;5.29;58.10
82784;BME280;72520;55.762;37.780;2024-03-29T04:02:47;99026.25;;;5.26;58.49
82784;BME280;72520;55.762;37.780;2024-03-29T04:05:49;99036.31;;;5.20;58.62
82784;BME280;72520;55.762;37.780;2024-03-29T04:08:51;99038.41;;;5.29;58.27
82784;BME280;72520;55.762;37.780;2024-03-29T04:11:53;99011.28;;;5.27;57.97
82784;BME280;72520;55.762;37.780;2024-03-29T04:14:57;99019.63;;;5.19;58.28
82784;BME280;72520;55.762;37.780;2024-03-29T04:17:59;99017.31;;;5.29;58.39
82784;BME280;72520;55.762;37.780;2024-03-29T04:21:05;99009.50;;;5.27;58.29
82784;BME280;72520;55.762;37.780;2024-03-29T04:24:09;98997.72;;;5.33;58.49
82784;BME280;72520;55.762;37.780;2024-03-29T04:27:15;98993.13;;;5.36;58.05
82784;BME280;72520;55.762;37.780;2024-03-29T04:30:16;98994.66;;;5.40;57.88
82784;BME280;72520;55.762;37.780;2024-03-29T04:33:21;98979.88;;;5.52;57.96
82784;BME280;72520;55.762;37.780;2024-03-29T04:36:25;98984.91;;;5.56;57.48
82784;BME280;72520;55.762;37.780;2024-03-29T04:39:27;98978.22;;;5.65;57.77
82784;BME280;72520;55.762;37.780;2024-03-29T04:42:31;98982.34;;;5.85;57.07
82784;BME280;72520;55.762;37.780;2024-03-29T04:45:33;98982.69;;;5.94;56.85
82784;BME280;72520;55.762;37.780;2024-03-29T04:48:35;98973.06;;;6.07;56.28
82784;BME280;72520;55.762;37.780;2024-03-29T04:51:38;98973.16;;;6.06;56.15
82784;BME280;72520;55.762;37.780;2024-03-29T04:54:43;98957.97;;;6.09;55.99
82784;BME280;72520;55.762;37.780;2024-03-29T04:57:48;98951.28;;;6.04;56.47
82784;BME280;72520;55.762;37.780;2024-03-29T05:00:50;98940.50;;;5.93;56.42
82784;BME280;72520;55.762;37.780;2024-03-29T05:03:56;98947.38;;;5.95;56.34
82784;BME280;72520;55.762;37.780;2024-03-29T05:06:58;98936.78;;;5.81;56.28
82784;BME280;72520;55.762;37.780;2024-03-29T05:10:00;98935.53;;;5.73;57.25
82784;BME280;72520;55.762;37.780;2024-03-29T05:13:06;98927.34;;;5.77;57.04
82784;BME280;72520;55.762;37.780;2024-03-29T05:16:09;98922.63;;;5.82;56.43
82784;BME280;72520;55.762;37.780;2024-03-29T05:19:11;98937.00;;;5.78;57.06
82784;BME280;72520;55.762;37.780;2024-03-29T05:22:13;98932.25;;;5.83;56.85
82784;BME280;72520;55.762;37.780;2024-03-29T05:25:16;98913.22;;;5.78;56.95
82784;BME280;72520;55.762;37.780;2024-03-29T05:28:27;98892.25;;;5.75;56.75
82784;BME280;72520;55.762;37.780;2024-03-29T05:31:29;98888.06;;;5.87;56.83
82784;BME280;72520;55.762;37.780;2024-03-29T05:34:32;98886.47;;;5.98;56.42
82784;BME280;72520;55.762;37.780;2024-03-29T05:37:34;98897.13;;;6.11;56.03
82784;BME280;72520;55.762;37.780;2024-03-29T05:40:36;98908.16;;;6.18;55.47
82784;BME280;72520;55.762;37.780;2024-03-29T05:43:41;98901.34;;;6.28;55.35
82784;BME280;72520;55.762;37.780;2024-03-29T05:46:45;98887.09;;;6.30;55.48
82784;BME280;72520;55.762;37.780;2024-03-29T05:49:47;98892.00;;;6.36;55.55
82784;BME280;72520;55.762;37.780;2024-03-29T05:52:50;98900.69;;;6.38;55.42
82784;BME280;72520;55.762;37.780;2024-03-29T05:55:52;98905.31;;;6.35;55.17
82784;BME280;72520;55.762;37.780;2024-03-29T05:58:56;98899.91;;;6.36;55.45
82784;BME280;72520;55.762;37.780;2024-03-29T06:01:58;98891.16;;;6.36;55.53
82784;BME280;72520;55.762;37.780;2024-03-29T06:05:00;98904.59;;;6.19;55.39
82784;BME280;72520;55.762;37.780;2024-03-29T06:08:05;98902.59;;;6.22;55.66
82784;BME280;72520;55.762;37.780;2024-03-29T06:11:10;98902.88;;;6.32;55.45
82784;BME280;72520;55.762;37.780;2024-03-29T06:14:13;98892.97;;;6.35;55.66
82784;BME280;72520;55.762;37.780;2024-03-29T06:17:33;98901.34;;;6.28;55.48
82784;BME280;72520;55.762;37.780;2024-03-29T06:20:42;98914.19;;;6.34;55.04
82784;BME280;72520;55.762;37.780;2024-03-29T06:23:44;98912.84;;;6.41;55.03
82784;BME280;72520;55.762;37.780;2024-03-29T06:26:46;98902.47;;;6.38;55.22
82784;BME280;72520;55.762;37.780;2024-03-29T06:29:53;98903.72;;;6.32;55.66
82784;BME280;72520;55.762;37.780;2024-03-29T06:32:55;98890.78;;;6.28;56.00
82784;BME280;72520;55.762;37.780;2024-03-29T06:36:01;98902.88;;;6.18;56.39
82784;BME280;72520;55.762;37.780;2024-03-29T06:39:03;98908.75;;;6.08;56.77
82784;BME280;72520;55.762;37.780;2024-03-29T06:42:06;98908.81;;;6.21;56.36
82784;BME280;72520;55.762;37.780;2024-03-29T06:45:10;98913.84;;;6.26;56.10
82784;BME280;72520;55.762;37.780;2024-03-29T06:48:12;98896.06;;;6.42;55.87
82784;BME280;72520;55.762;37.780;2024-03-29T06:51:16;98898.72;;;6.42;56.20
82784;BME280;72520;55.762;37.780;2024-03-29T06:54:18;98901.81;;;6.48;56.47
82784;BME280;72520;55.762;37.780;2024-03-29T06:57:27;98897.19;;;6.52;55.75
82784;BME280;72520;55.762;37.780;2024-03-29T07:00:33;98892.53;;;6.55;55.68
82784;BME280;72520;55.762;37.780;2024-03-29T07:03:35;98898.22;;;6.90;54.77
82784;BME280;72520;55.762;37.780;2024-03-29T07:06:37;98889.75;;;6.98;54.47
82784;BME280;72520;55.762;37.780;2024-03-29T07:09:40;98889.31;;;6.91;54.80
82784;BME280;72520;55.762;37.780;2024-03-29T07:12:44;98882.78;;;6.97;54.82
82784;BME280;72520;55.762;37.780;2024-03-29T07:15:52;98884.72;;;7.07;54.63
82784;BME280;72520;55.762;37.780;2024-03-29T07:18:54;98877.28;;;7.00;54.54
82784;BME280;72520;55.762;37.780;2024-03-29T07:21:57;98880.44;;;6.92;54.20
82784;BME280;72520;55.762;37.780;2024-03-29T07:24:59;98881.28;;;6.93;54.83
82784;BME280;72520;55.762;37.780;2024-03-29T07:28:01;98871.28;;;7.10;54.65
82784;BME280;72520;55.762;37.780;2024-03-29T07:31:10;98859.00;;;7.09;54.47
82784;BME280;72520;55.762;37.780;2024-03-29T07:34:12;98858.13;;;6.96;54.82
82784;BME280;72520;55.762;37.780;2024-03-29T07:37:14;98859.94;;;7.08;54.61
82784;BME280;72520;55.762;37.780;2024-03-29T07:40:17;98856.81;;;7.16;54.63
82784;BME280;72520;55.762;37.780;2024-03-29T07:43:20;98848.28;;;6.98;54.46
82784;BME280;72520;55.762;37.780;2024-03-29T07:46:27;98851.28;;;7.06;54.62
82784;BME280;72520;55.762;37.780;2024-03-29T07:49:30;98849.91;;;7.13;54.71
82784;BME280;72520;55.762;37.780;2024-03-29T07:52:32;98844.50;;;7.15;54.79
82784;BME280;72520;55.762;37.780;2024-03-29T07:55:38;98845.03;;;7.07;54.75
82784;BME280;72520;55.762;37.780;2024-03-29T07:58:40;98842.41;;;7.07;54.46
82784;BME280;72520;55.762;37.780;2024-03-29T08:01:44;98851.13;;;6.95;54.80
82784;BME280;72520;55.762;37.780;2024-03-29T08:04:51;98849.88;;;7.01;54.79
82784;BME280;72520;55.762;37.780;2024-03-29T08:07:54;98847.53;;;6.96;55.48
82784;BME280;72520;55.762;37.780;2024-03-29T08:10:57;98839.59;;;6.96;54.79
82784;BME280;72520;55.762;37.780;2024-03-29T08:13:59;98839.59;;;6.96;55.59
82784;BME280;72520;55.762;37.780;2024-03-29T08:17:04;98831.31;;;6.88;57.05
82784;BME280;72520;55.762;37.780;2024-03-29T08:20:10;98830.03;;;6.81;58.34
82784;BME280;72520;55.762;37.780;2024-03-29T08:23:12;98814.13;;;6.69;59.44
82784;BME280;72520;55.762;37.780;2024-03-29T08:26:14;98813.13;;;6.57;58.77
82784;BME280;72520;55.762;37.780;2024-03-29T08:29:16;98801.19;;;6.64;59.75
82784;BME280;72520;55.762;37.780;2024-03-29T08:32:21;98792.94;;;6.56;60.69
82784;BME280;72520;55.762;37.780;2024-03-29T08:35:23;98798.31;;;6.54;60.49
82784;BME280;72520;55.762;37.780;2024-03-29T08:38:25;98809.25;;;6.62;60.36
82784;BME280;72520;55.762;37.780;2024-03-29T08:41:30;98815.75;;;6.57;60.21
82784;BME280;72520;55.762;37.780;2024-03-29T08:44:32;98833.94;;;6.76;59.86
82784;BME280;72520;55.762;37.780;2024-03-29T08:47:36;98832.13;;;6.76;60.02
82784;BME280;72520;55.762;37.780;2024-03-29T08:50:42;98834.16;;;6.85;59.91
82784;BME280;72520;55.762;37.780;2024-03-29T08:53:44;98831.16;;;6.77;59.76
82784;BME280;72520;55.762;37.780;2024-03-29T08:56:50;98831.72;;;6.82;59.87
82784;BME280;72520;55.762;37.780;2024-03-29T08:59:53;98817.66;;;6.82;59.33
82784;BME280;72520;55.762;37.780;2024-03-29T09:02:59;98816.09;;;6.92;60.17
82784;BME280;72520;55.762;37.780;2024-03-29T09:06:01;98823.59;;;6.85;59.61
82784;BME280;72520;55.762;37.780;2024-03-29T09:09:04;98813.91;;;6.72;60.14
82784;BME280;72520;55.762;37.780;2024-03-29T09:12:06;98810.66;;;6.81;60.16
82784;BME280;72520;55.762;37.780;2024-03-29T09:15:09;98812.66;;;6.77;59.78
82784;BME280;72520;55.762;37.780;2024-03-29T09:18:18;98810.34;;;6.73;60.29
82784;BME280;72520;55.762;37.780;2024-03-29T09:21:27;98803.78;;;6.78;60.17
82784;BME280;72520;55.762;37.780;2024-03-29T09:24:32;98800.94;;;6.81;60.07
82784;BME280;72520;55.762;37.780;2024-03-29T09:27:35;98795.31;;;6.73;60.48
82784;BME280;72520;55.762;37.780;2024-03-29T09:30:37;98796.53;;;6.55;60.70
82784;BME280;72520;55.762;37.780;2024-03-29T09:33:42;98792.38;;;6.51;60.34
82784;BME280;72520;55.762;37.780;2024-03-29T09:36:47;98789.59;;;6.67;60.08
82784;BME280;72520;55.762;37.780;2024-03-29T09:39:50;98787.78;;;6.67;59.89
82784;BME280;72520;55.762;37.780;2024-03-29T09:42:53;98793.69;;;6.71;60.80
82784;BME280;72520;55.762;37.780;2024-03-29T09:45:58;98790.16;;;6.84;59.85
82784;BME280;72520;55.762;37.780;2024-03-29T09:49:03;98777.63;;;7.00;60.32
82784;BME280;72520;55.762;37.780;2024-03-29T09:52:07;98785.22;;;7.05;59.37
82784;BME280;72520;55.762;37.780;2024-03-29T09:55:10;98787.66;;;7.08;59.64
82784;BME280;72520;55.762;37.780;2024-03-29T09:58:13;98785.00;;;7.08;59.39
82784;BME280;72520;55.762;37.780;2024-03-29T10:01:15;98789.47;;;7.07;58.41
82784;BME280;72520;55.762;37.780;2024-03-29T10:04:23;98781.97;;;7.14;58.59
82784;BME280;72520;55.762;37.780;2024-03-29T10:07:27;98783.44;;;7.18;59.47
82784;BME280;72520;55.762;37.780;2024-03-29T10:10:31;98791.56;;;7.02;58.74
82784;BME280;72520;55.762;37.780;2024-03-29T10:13:34;98781.84;;;7.03;58.92
82784;BME280;72520;55.762;37.780;2024-03-29T10:16:36;98779.97;;;7.18;59.09
82784;BME280;72520;55.762;37.780;2024-03-29T10:19:40;98768.09;;;7.23;58.67
82784;BME280;72520;55.762;37.780;2024-03-29T10:22:42;98763.03;;;7.33;58.10
82784;BME280;72520;55.762;37.780;2024-03-29T10:25:45;98757.19;;;7.53;57.68
82784;BME280;72520;55.762;37.780;2024-03-29T10:28:48;98754.41;;;7.67;57.18
82784;BME280;72520;55.762;37.780;2024-03-29T10:31:51;98762.16;;;7.70;57.25
82784;BME280;72520;55.762;37.780;2024-03-29T10:34:55;98761.94;;;7.73;57.10
82784;BME280;72520;55.762;37.780;2024-03-29T10:37:57;98762.28;;;7.68;57.51
82784;BME280;72520;55.762;37.780;2024-03-29T10:40:59;98766.38;;;7.85;56.67
82784;BME280;72520;55.762;37.780;2024-03-29T10:44:04;98747.97;;;7.71;56.55
82784;BME280;72520;55.762;37.780;2024-03-29T10:47:11;98755.59;;;7.76;56.78
82784;BME280;72520;55.762;37.780;2024-03-29T10:50:23;98739.25;;;7.69;57.30
82784;BME280;72520;55.762;37.780;2024-03-29T10:53:27;98732.72;;;7.62;57.41
82784;BME280;72520;55.762;37.780;2024-03-29T10:56:30;98735.88;;;7.67;57.32
82784;BME280;72520;55.762;37.780;2024-03-29T10:59:37;98730.19;;;8.09;56.64
82784;BME280;72520;55.762;37.780;2024-03-29T11:02:48;98729.38;;;8.20;55.80
82784;BME280;72520;55.762;37.780;2024-03-29T11:05:55;98729.16;;;8.23;55.99
82784;BME280;72520;55.762;37.780;2024-03-29T11:09:02;98742.44;;;8.10;56.23
82784;BME280;72520;55.762;37.780;2024-03-29T11:12:05;98726.63;;;8.22;56.11
82784;BME280;72520;55.762;37.780;2024-03-29T11:15:14;98730.00;;;8.36;55.85
82784;BME280;72520;55.762;37.780;2024-03-29T11:21:44;98728.03;;;8.14;56.35
82784;BME280;72520;55.762;37.780;2024-03-29T11:24:50;98724.50;;;8.14;56.34
82784;BME280;72520;55.762;37.780;2024-03-29T11:27:52;98718.38;;;8.13;56.63
82784;BME280;72520;55.762;37.780;2024-03-29T11:31:06;98708.66;;;8.01;56.88
82784;BME280;72520;55.762;37.780;2024-03-29T11:34:09;98708.00;;;8.10;56.81
82784;BME280;72520;55.762;37.780;2024-03-29T11:37:13;98710.63;;;8.23;56.87
82784;BME280;72520;55.762;37.780;2024-03-29T11:40:17;98710.91;;;8.31;55.97
82784;BME280;72520;55.762;37.780;2024-03-29T11:43:41;98706.84;;;8.38;56.04
82784;BME280;72520;55.762;37.780;2024-03-29T11:46:44;98719.38;;;8.36;56.44
82784;BME280;72520;55.762;37.780;2024-03-29T11:49:55;98720.16;;;8.49;56.05
82784;BME280;72520;55.762;37.780;2024-03-29T11:53:05;98706.69;;;8.98;55.05
82784;BME280;72520;55.762;37.780;2024-03-29T11:56:10;98717.31;;;9.09;54.16
82784;BME280;72520;55.762;37.780;2024-03-29T11:59:12;98707.59;;;9.43;53.83
82784;BME280;72520;55.762;37.780;2024-03-29T12:02:19;98707.34;;;9.46;54.05
82784;BME280;72520;55.762;37.780;2024-03-29T12:05:29;98703.13;;;9.55;53.02
82784;BME280;72520;55.762;37.780;2024-03-29T12:08:37;98702.91;;;9.69;53.43
82784;BME280;72520;55.762;37.780;2024-03-29T12:11:39;98696.75;;;10.11;52.59
82784;BME280;72520;55.762;37.780;2024-03-29T12:14:42;98694.25;;;9.99;52.33
82784;BME280;72520;55.762;37.780;2024-03-29T12:17:53;98696.75;;;10.34;51.54
82784;BME280;72520;55.762;37.780;2024-03-29T12:21:00;98691.13;;;10.16;52.04
82784;BME280;72520;55.762;37.780;2024-03-29T12:24:04;98694.56;;;10.28;51.65
82784;BME280;72520;55.762;37.780;2024-03-29T12:27:06;98694.38;;;10.19;52.54
82784;BME280;72520;55.762;37.780;2024-03-29T12:30:09;98706.19;;;10.27;52.19
82784;BME280;72520;55.762;37.780;2024-03-29T12:33:17;98703.84;;;10.44;51.74
82784;BME280;72520;55.762;37.780;2024-03-29T12:36:23;98718.41;;;10.29;52.03
82784;BME280;72520;55.762;37.780;2024-03-29T12:39:31;98709.28;;;10.43;51.84
82784;BME280;72520;55.762;37.780;2024-03-29T12:42:34;98716.44;;;10.31;51.94
82784;BME280;72520;55.762;37.780;2024-03-29T12:45:38;98710.66;;;10.37;52.19
82784;BME280;72520;55.762;37.780;2024-03-29T12:48:45;98697.63;;;10.55;51.94
82784;BME280;72520;55.762;37.780;2024-03-29T12:52:07;98697.56;;;10.66;51.40
82784;BME280;72520;55.762;37.780;2024-03-29T12:55:13;98691.03;;;10.70;51.91
82784;BME280;72520;55.762;37.780;2024-03-29T12:58:19;98683.31;;;10.67;52.14
82784;BME280;72520;55.762;37.780;2024-03-29T13:01:24;98688.09;;;10.73;51.25
82784;BME280;72520;55.762;37.780;2024-03-29T13:04:28;98685.44;;;10.73;51.48
82784;BME280;72520;55.762;37.780;2024-03-29T13:07:33;98691.97;;;10.48;52.77
82784;BME280;72520;55.762;37.780;2024-03-29T13:10:37;98696.34;;;10.38;52.98
82784;BME280;72520;55.762;37.780;2024-03-29T13:13:43;98679.66;;;10.47;52.83
82784;BME280;72520;55.762;37.780;2024-03-29T13:16:47;98684.78;;;10.60;52.38
82784;BME280;72520;55.762;37.780;2024-03-29T13:19:49;98674.81;;;10.41;52.79
82784;BME280;72520;55.762;37.780;2024-03-29T13:22:51;98679.50;;;10.49;52.77
82784;BME280;72520;55.762;37.780;2024-03-29T13:25:56;98685.38;;;10.32;53.27
82784;BME280;72520;55.762;37.780;2024-03-29T13:28:59;98677.94;;;10.46;53.15
82784;BME280;72520;55.762;37.780;2024-03-29T13:32:05;98678.53;;;10.50;53.21
82784;BME280;72520;55.762;37.780;2024-03-29T13:35:08;98671.00;;;10.55;53.33
82784;BME280;72520;55.762;37.780;2024-03-29T13:38:10;98662.44;;;10.51;53.85
82784;BME280;72520;55.762;37.780;2024-03-29T13:41:17;98671.75;;;10.57;52.93
82784;BME280;72520;55.762;37.780;2024-03-29T13:44:20;98674.41;;;10.57;53.23
82784;BME280;72520;55.762;37.780;2024-03-29T13:47:22;98663.03;;;10.55;53.22
82784;BME280;72520;55.762;37.780;2024-03-29T13:50:27;98669.97;;;10.46;53.35
82784;BME280;72520;55.762;37.780;2024-03-29T13:53:29;98666.97;;;10.40;53.76
82784;BME280;72520;55.762;37.780;2024-03-29T13:56:38;98668.72;;;10.30;53.89
82784;BME280;72520;55.762;37.780;2024-03-29T13:59:40;98656.84;;;10.34;53.97
82784;BME280;72520;55.762;37.780;2024-03-29T14:02:50;98672.06;;;10.32;54.19
82784;BME280;72520;55.762;37.780;2024-03-29T14:05:55;98663.47;;;10.39;53.50
82784;BME280;72520;55.762;37.780;2024-03-29T14:08:59;98667.91;;;10.50;53.75
82784;BME280;72520;55.762;37.780;2024-03-29T14:12:06;98654.03;;;10.67;53.49
82784;BME280;72520;55.762;37.780;2024-03-29T14:15:12;98662.91;;;10.56;53.18
82784;BME280;72520;55.762;37.780;2024-03-29T14:18:17;98661.47;;;10.52;53.77
82784;BME280;72520;55.762;37.780;2024-03-29T14:21:19;98669.34;;;10.54;53.36
82784;BME280;72520;55.762;37.780;2024-03-29T14:24:25;98680.97;;;10.42;53.48
82784;BME280;72520;55.762;37.780;2024-03-29T14:27:30;98678.91;;;10.45;54.02
82784;BME280;72520;55.762;37.780;2024-03-29T14:30:32;98685.44;;;10.41;53.91
82784;BME280;72520;55.762;37.780;2024-03-29T14:33:34;98676.19;;;10.36;53.79
82784;BME280;72520;55.762;37.780;2024-03-29T14:36:37;98671.69;;;10.36;53.77
82784;BME280;72520;55.762;37.780;2024-03-29T14:39:39;98674.41;;;10.25;54.76
82784;BME280;72520;55.762;37.780;2024-03-29T14:42:44;98667.75;;;10.31;54.24
82784;BME280;72520;55.762;37.780;2024-03-29T14:45:47;98669.03;;;10.36;54.54
82784;BME280;72520;55.762;37.780;2024-03-29T14:48:51;98670.09;;;10.45;53.94
82784;BME280;72520;55.762;37.780;2024-03-29T14:51:57;98670.56;;;10.50;54.13
82784;BME280;72520;55.762;37.780;2024-03-29T14:54:59;98666.47;;;10.46;53.88
82784;BME280;72520;55.762;37.780;2024-03-29T14:58:03;98675.22;;;10.37;54.53
82784;BME280;72520;55.762;37.780;2024-03-29T15:01:08;98669.22;;;10.24;55.10
82784;BME280;72520;55.762;37.780;2024-03-29T15:04:10;98674.78;;;10.20;54.87
82784;BME280;72520;55.762;37.780;2024-03-29T15:07:12;98681.66;;;10.12;54.97
82784;BME280;72520;55.762;37.780;2024-03-29T15:10:15;98679.50;;;10.06;54.98
82784;BME280;72520;55.762;37.780;2024-03-29T15:13:20;98690.25;;;10.04;55.12
82784;BME280;72520;55.762;37.780;2024-03-29T15:16:22;98698.13;;;9.95;55.67
82784;BME280;72520;55.762;37.780;2024-03-29T15:19:31;98684.00;;;9.94;55.58
82784;BME280;72520;55.762;37.780;2024-03-29T15:22:34;98682.03;;;10.07;55.26
82784;BME280;72520;55.762;37.780;2024-03-29T15:25:37;98683.63;;;9.99;55.29
82784;BME280;72520;55.762;37.780;2024-03-29T15:28:41;98686.16;;;10.00;55.59
82784;BME280;72520;55.762;37.780;2024-03-29T15:32:15;98682.69;;;9.89;56.02
82784;BME280;72520;55.762;37.780;2024-03-29T15:35:23;98683.66;;;9.77;56.02
82784;BME280;72520;55.762;37.780;2024-03-29T15:38:25;98683.94;;;9.62;56.82
82784;BME280;72520;55.762;37.780;2024-03-29T15:41:31;98680.94;;;9.56;56.83
82784;BME280;72520;55.762;37.780;2024-03-29T15:44:35;98677.66;;;9.41;57.08
82784;BME280;72520;55.762;37.780;2024-03-29T15:47:37;98687.78;;;9.25;57.40
82784;BME280;72520;55.762;37.780;2024-03-29T15:50:40;98703.59;;;9.38;57.78
82784;BME280;72520;55.762;37.780;2024-03-29T15:53:42;98688.78;;;9.35;56.95
82784;BME280;72520;55.762;37.780;2024-03-29T15:56:47;98682.59;;;9.35;57.05
82784;BME280;72520;55.762;37.780;2024-03-29T15:59:51;98690.56;;;9.24;57.22
82784;BME280;72520;55.762;37.780;2024-03-29T16:02:56;98691.91;;;9.18;57.44
82784;BME280;72520;55.762;37.780;2024-03-29T16:06:00;98691.38;;;9.13;57.71
82784;BME280;72520;55.762;37.780;2024-03-29T16:09:02;98694.28;;;9.10;58.24
82784;BME280;72520;55.762;37.780;2024-03-29T16:12:08;98699.22;;;9.03;58.26
82784;BME280;72520;55.762;37.780;2024-03-29T16:15:14;98688.34;;;8.95;57.97